Aviation Digital Data Service (ADDS)

Output produced by TAFs form (2106 UTC 01 September 2014)
found at http://www.aviationweather.gov/adds/tafs/
 
KSBY 011725Z 0118/0218 20009KT P6SM SCT035 
     FM020700 22003KT 5SM HZ SCT010 SCT035 
     FM021300 25004KT 6SM HZ FEW030